Terminal Aerodrome Forecast
Issued by NWS

Home | Current Version | Previous Version | Text Only | Print | Product List | Glossary Off
Versions: 1 2 3 4 5 6 7 8 9 10 11 12 13 14 15 16 17 18 19 20 21

254
FTUS43 KMPX 250540
TAFRNH
TAF
KRNH 250540Z 2506/2606 VRB03KT P6SM BKN250
     FM251200 10008KT P6SM BKN200
     FM251700 13008G15KT 5SM -SHRA VCTS SCT020 OVC050CB
     FM252200 13006KT P6SM OVC050=

USA.gov is the U.S. government's official web portal to all federal, state and local government web resources and services.